»·PEaware :: SWA2626 KGEG-KLAS

SWA2626 :: KGEG-KLAS

FLIGHT INFORMATION

Flight Status: Arrived
Operator:
Southwest Airlines
More flights by this operator :: More flights under this callsign
Pilot: Anonymous 17611 (17611)
Aircraft: BOEING 737-800
(B738)
More flights by this aircraft type
Origin: KGEG Spokane Intl
United States
Destination: KLAS McCarran Intl
United States
More flights between these airports :: More routes between these airports
Route: +GEG6 ZATIP Q73 WINEN MPIRE SITEE4
File this flight plan on PilotEdge
Remarks:
Altitude:
(Current/Filed)
41,000ft
Speed:
(Current/Filed)
490kts
Departed: 19-Mar-20 12:25 PM
Arrived: 19-Mar-20 02:19 PM
Distance/Time
Traveled:
700nm/1:53
Distance/Time
To Go:
Arrived

Flight Plot

Page will automatically refresh every two minutes.

Flight plan parsing failed; only flown route is shown


Map Options




Map Legend


Flown Route
Filed Route
Departure Airport
Arrival Airport
Navaid (VOR, NDB)
Fix

Horizontal Profiles

Position Reports

Time Latitude Longitude Heading Altitude Ground
Speed
19-Mar-20 12:03 47.625889 -117.535059 217 2365ft 0kts
19-Mar-20 12:04 47.625889 -117.535059 217 2365ft 0kts
19-Mar-20 12:05 47.625889 -117.535059 217 2365ft 0kts
19-Mar-20 12:06 47.625889 -117.535059 217 2365ft 0kts
19-Mar-20 12:07 47.625889 -117.535059 217 2365ft 0kts
19-Mar-20 12:08 47.625889 -117.535059 217 2365ft 0kts
19-Mar-20 12:09 47.625889 -117.535059 217 2365ft 0kts
19-Mar-20 12:10 47.625889 -117.535059 217 2365ft 0kts
19-Mar-20 12:11 47.625889 -117.535059 217 2365ft 0kts
19-Mar-20 12:12 47.625889 -117.535059 217 2365ft 0kts
19-Mar-20 12:13 47.625889 -117.535059 217 2365ft 0kts
19-Mar-20 12:14 47.625960 -117.534977 216 2365ft 2kts
19-Mar-20 12:15 47.625994 -117.534212 248 2365ft 2kts
19-Mar-20 12:16 47.626381 -117.534127 136 2365ft 0kts
19-Mar-20 12:17 47.626380 -117.534126 136 2365ft 0kts
19-Mar-20 12:18 47.625253 -117.532673 137 2365ft 0kts
19-Mar-20 12:19 47.623892 -117.533438 225 2365ft 19kts
19-Mar-20 12:20 47.618345 -117.541710 225 2365ft 28kts
19-Mar-20 12:21 47.613175 -117.549506 224 2365ft 24kts
19-Mar-20 12:22 47.611440 -117.551759 146 2365ft 2kts
19-Mar-20 12:23 47.610485 -117.549453 47 2365ft 13kts
19-Mar-20 12:24 47.636333 -117.510639 44 3353ft 196kts
19-Mar-20 12:25 47.682410 -117.439794 55 5855ft 267kts
19-Mar-20 12:26 47.650315 -117.353010 157 9136ft 286kts
19-Mar-20 12:27 47.572024 -117.308656 159 11256ft 335kts
19-Mar-20 12:28 47.481813 -117.255762 159 13956ft 358kts
19-Mar-20 12:29 47.386803 -117.200232 159 16717ft 376kts
19-Mar-20 12:30 47.287300 -117.142182 159 19191ft 393kts
19-Mar-20 12:31 47.183479 -117.081728 159 21408ft 410kts
19-Mar-20 12:32 47.074952 -117.018660 159 23436ft 426kts
19-Mar-20 12:33 46.962434 -116.953410 157 25205ft 442kts
19-Mar-20 12:34 46.846696 -116.886427 155 27067ft 450kts
19-Mar-20 12:35 46.728827 -116.818361 155 28561ft 461kts
19-Mar-20 12:36 46.607714 -116.748589 155 30035ft 469kts
19-Mar-20 12:37 46.486560 -116.678951 155 31718ft 467kts
19-Mar-20 12:38 46.366004 -116.609803 154 33315ft 465kts
19-Mar-20 12:39 46.246109 -116.541188 154 34843ft 463kts
19-Mar-20 12:40 46.125137 -116.477659 156 36271ft 461kts
19-Mar-20 12:41 46.004150 -116.415859 156 37481ft 461kts
19-Mar-20 12:42 45.883106 -116.354294 156 38621ft 460kts
19-Mar-20 12:43 45.762334 -116.293116 157 39674ft 460kts
19-Mar-20 12:44 45.642417 -116.232685 157 40655ft 461kts
19-Mar-20 12:45 45.522260 -116.172384 157 41050ft 473kts
19-Mar-20 12:46 45.396163 -116.109426 157 41036ft 489kts
19-Mar-20 12:47 45.267091 -116.045306 157 40985ft 488kts
19-Mar-20 12:48 45.139164 -115.982032 157 40984ft 488kts
19-Mar-20 12:49 45.010979 -115.918956 156 40983ft 483kts
19-Mar-20 12:50 44.885202 -115.857329 155 40980ft 475kts
19-Mar-20 12:51 44.759799 -115.796150 155 40973ft 477kts
19-Mar-20 12:52 44.634006 -115.735095 155 40979ft 477kts
19-Mar-20 12:53 44.507980 -115.674830 156 40980ft 478kts
19-Mar-20 12:54 44.382041 -115.614256 155 40978ft 477kts
19-Mar-20 12:55 44.257562 -115.554612 155 40990ft 476kts
19-Mar-20 12:56 44.131957 -115.494742 155 41025ft 478kts
19-Mar-20 12:57 44.006378 -115.435135 155 41025ft 476kts
19-Mar-20 12:59 43.880967 -115.375873 155 41018ft 476kts
19-Mar-20 13:00 43.755318 -115.316756 156 41022ft 477kts
19-Mar-20 13:01 43.629697 -115.257949 156 41020ft 477kts
19-Mar-20 13:02 43.503596 -115.199138 156 41039ft 477kts
19-Mar-20 13:03 43.377993 -115.140837 156 41029ft 475kts
19-Mar-20 13:04 43.251970 -115.089098 158 41030ft 471kts
19-Mar-20 13:05 43.125987 -115.038010 158 41034ft 472kts
19-Mar-20 13:06 43.000809 -114.987501 159 41029ft 466kts
19-Mar-20 13:07 42.878619 -114.938384 161 41030ft 452kts
19-Mar-20 13:08 42.758046 -114.890113 161 41028ft 455kts
19-Mar-20 13:09 42.632364 -114.866365 174 41028ft 461kts
19-Mar-20 13:10 42.505381 -114.853927 173 41035ft 455kts
19-Mar-20 13:11 42.378249 -114.841281 173 41039ft 459kts
19-Mar-20 13:12 42.251181 -114.828750 173 41032ft 458kts
19-Mar-20 13:13 42.124270 -114.816159 173 41039ft 458kts
19-Mar-20 13:14 41.997222 -114.803722 173 41034ft 457kts
19-Mar-20 13:15 41.870890 -114.791307 173 41034ft 458kts
19-Mar-20 13:15 41.764977 -114.781012 173 41037ft 459kts
19-Mar-20 13:17 41.617099 -114.766638 173 41033ft 457kts
19-Mar-20 13:18 41.490490 -114.754382 173 41028ft 458kts
19-Mar-20 13:18 41.384501 -114.744173 173 41026ft 458kts
19-Mar-20 13:20 41.236975 -114.730058 173 41020ft 457kts
19-Mar-20 13:21 41.110039 -114.717911 173 41027ft 459kts
19-Mar-20 13:21 41.005790 -114.707993 174 41024ft 442kts
19-Mar-20 13:22 40.887736 -114.696745 175 41028ft 433kts
19-Mar-20 13:24 40.746710 -114.683408 175 41027ft 437kts
19-Mar-20 13:24 40.646402 -114.673955 175 41027ft 435kts
19-Mar-20 13:25 40.525679 -114.662614 175 41025ft 435kts
19-Mar-20 13:26 40.405903 -114.651407 175 41027ft 434kts
19-Mar-20 13:27 40.285221 -114.640160 175 41021ft 437kts
19-Mar-20 13:28 40.164248 -114.628914 175 41002ft 435kts
19-Mar-20 13:29 40.043924 -114.617763 175 40993ft 436kts
19-Mar-20 13:30 39.922831 -114.606604 175 40983ft 436kts
19-Mar-20 13:31 39.802255 -114.595548 175 40991ft 434kts
19-Mar-20 13:32 39.681746 -114.584536 175 40993ft 436kts
19-Mar-20 13:33 39.561176 -114.573519 175 40990ft 436kts
19-Mar-20 13:34 39.440343 -114.562509 175 40989ft 435kts
19-Mar-20 13:35 39.320162 -114.547692 165 40995ft 434kts
19-Mar-20 13:36 39.211721 -114.480783 149 40989ft 438kts
19-Mar-20 13:37 39.107880 -114.399393 149 40984ft 437kts
19-Mar-20 13:38 39.003738 -114.318200 150 40985ft 438kts
19-Mar-20 13:39 38.899190 -114.236948 151 40985ft 447kts
19-Mar-20 13:40 38.792035 -114.153948 151 40992ft 451kts
19-Mar-20 13:41 38.685045 -114.071381 151 40992ft 449kts
19-Mar-20 13:42 38.578135 -113.989151 151 41007ft 450kts
19-Mar-20 13:43 38.470553 -113.906701 151 41011ft 450kts
19-Mar-20 13:44 38.364474 -113.825695 151 41008ft 449kts
19-Mar-20 13:45 38.257396 -113.744217 151 41007ft 449kts
19-Mar-20 13:46 38.150536 -113.663181 151 41016ft 450kts
19-Mar-20 13:47 38.043105 -113.581966 151 41027ft 450kts
19-Mar-20 13:48 37.932520 -113.512594 167 41029ft 443kts
19-Mar-20 13:49 37.810521 -113.501926 182 41029ft 440kts
19-Mar-20 13:50 37.692338 -113.504228 182 41027ft 406kts
19-Mar-20 13:51 37.577832 -113.506872 186 41031ft 417kts
19-Mar-20 13:52 37.470147 -113.554425 205 40928ft 414kts
19-Mar-20 13:53 37.366083 -113.617159 205 39313ft 413kts
19-Mar-20 13:54 37.263748 -113.678300 205 37191ft 407kts
19-Mar-20 13:55 37.161405 -113.739298 205 34989ft 410kts
19-Mar-20 13:56 37.057838 -113.800833 206 32574ft 414kts
19-Mar-20 13:57 36.954282 -113.862173 207 29661ft 415kts
19-Mar-20 13:58 36.849732 -113.923905 207 26887ft 407kts
19-Mar-20 13:59 36.752532 -113.981148 207 25561ft 393kts
19-Mar-20 14:00 36.655630 -114.038006 207 22329ft 372kts
19-Mar-20 14:01 36.572071 -114.101417 228 19127ft 342kts
19-Mar-20 14:02 36.518677 -114.196041 237 15993ft 332kts
19-Mar-20 14:03 36.472586 -114.286308 236 14359ft 289kts
19-Mar-20 14:04 36.429585 -114.370133 237 12645ft 285kts
19-Mar-20 14:05 36.387165 -114.452636 237 12009ft 284kts
19-Mar-20 14:06 36.344477 -114.535404 237 12010ft 283kts
19-Mar-20 14:07 36.298919 -114.617180 223 10596ft 287kts
19-Mar-20 14:08 36.230509 -114.659704 198 8873ft 264kts
19-Mar-20 14:09 36.165238 -114.687804 198 8019ft 221kts
19-Mar-20 14:10 36.107716 -114.713244 205 8006ft 220kts
19-Mar-20 14:11 36.075623 -114.775786 260 7723ft 236kts
19-Mar-20 14:12 36.073689 -114.857670 265 6485ft 228kts
19-Mar-20 14:13 36.073766 -114.927580 264 5309ft 184kts
19-Mar-20 14:14 36.073736 -114.987781 264 4330ft 173kts
19-Mar-20 14:15 36.073754 -115.045177 264 3408ft 158kts
19-Mar-20 14:16 36.073689 -115.099040 265 2522ft 155kts
19-Mar-20 14:17 36.073624 -115.145347 267 2102ft 69kts
19-Mar-20 14:18 36.074771 -115.150523 301 2102ft 0kts
19-Mar-20 14:19 36.074771 -115.150523 301 2102ft 0kts
19-Mar-20 14:20 36.074776 -115.150533 302 2102ft 0kts
19-Mar-20 14:21 36.076424 -115.151528 25 2102ft 14kts
19-Mar-20 14:22 36.079277 -115.148181 340 2102ft 17kts
19-Mar-20 14:23 36.080974 -115.147751 57 2102ft 0kts
19-Mar-20 14:24 36.080974 -115.147751 57 2102ft 0kts
19-Mar-20 14:25 36.080974 -115.147751 57 2102ft 0kts
19-Mar-20 14:26 36.080974 -115.147751 57 2102ft 0kts
19-Mar-20 14:27 36.080974 -115.147751 57 2102ft 0kts
19-Mar-20 14:28 36.080974 -115.147751 57 2102ft 0kts
19-Mar-20 14:29 36.080974 -115.147751 57 2102ft 0kts
19-Mar-20 14:30 36.080974 -115.147751 57 2102ft 0kts
19-Mar-20 14:31 36.080974 -115.147751 57 2102ft 0kts
19-Mar-20 14:32 36.080974 -115.147751 57 2102ft 0kts

Navigation Log

Ident Type
Flight plan parsing failed, navigation log unavailable